Time,TemperatureF,DewpointF,PressureIn,WindDirection,WindDirectionDegrees,WindSpeedMPH,WindSpeedGustMPH,Humidity,HourlyPrecipIn,Conditions,Clouds,dailyrainin,SoftwareType,DateUTC
2013-10-13 00:01:00,43.6,41.4,30.04,NNW,342,0.0,0.0,92,0.00,,CLR,0.00,VWS V14.01,2013-10-13 07:01:00,
2013-10-13 00:06:00,43.3,41.1,30.04,NNW,342,0.0,0.0,92,0.00,,CLR,0.00,VWS V14.01,2013-10-13 07:06:00,
2013-10-13 00:11:00,43.5,41.3,30.04,NNW,342,0.0,0.0,92,0.00,,CLR,0.00,VWS V14.01,2013-10-13 07:11:00,
2013-10-13 00:16:00,43.3,41.1,30.04,NNW,342,0.0,0.0,92,0.00,,CLR,0.00,VWS V14.01,2013-10-13 07:16:00,
2013-10-13 00:21:00,43.1,40.9,30.04,NNW,342,0.0,0.0,92,0.00,,CLR,0.00,VWS V14.01,2013-10-13 07:21:00,
2013-10-13 00:26:00,42.8,40.6,30.04,NNW,342,0.0,0.0,92,0.00,,CLR,0.00,VWS V14.01,2013-10-13 07:26:00,
2013-10-13 00:31:00,42.5,40.3,30.04,NNW,342,0.0,0.0,92,0.00,,CLR,0.00,VWS V14.01,2013-10-13 07:31:00,
2013-10-13 00:36:00,42.2,40.0,30.04,NNW,342,0.0,0.0,92,0.00,,CLR,0.00,VWS V14.01,2013-10-13 07:36:00,
2013-10-13 00:41:00,42.2,40.0,30.04,NNW,342,0.0,0.0,92,0.00,,CLR,0.00,VWS V14.01,2013-10-13 07:41:00,
2013-10-13 00:46:00,42.1,40.0,30.04,NNW,342,0.0,0.0,92,0.00,,CLR,0.00,VWS V14.01,2013-10-13 07:46:00,
2013-10-13 00:51:00,41.9,39.8,30.04,NNW,342,0.0,0.0,92,0.00,,CLR,0.00,VWS V14.01,2013-10-13 07:51:00,
2013-10-13 00:56:00,41.6,39.5,30.04,NNW,342,0.0,0.0,92,0.00,,CLR,0.00,VWS V14.01,2013-10-13 07:56:00,
2013-10-13 01:01:00,41.5,39.3,30.05,NNW,342,0.0,0.0,92,0.00,,CLR,0.00,VWS V14.01,2013-10-13 08:01:00,
2013-10-13 01:06:00,41.2,39.1,30.05,NNW,342,0.0,0.0,92,0.00,,CLR,0.00,VWS V14.01,2013-10-13 08:06:00,
2013-10-13 01:11:00,41.1,39.0,30.05,NNW,342,0.0,0.0,92,0.00,,CLR,0.00,VWS V14.01,2013-10-13 08:11:00,
2013-10-13 01:16:00,40.9,38.8,30.05,NNW,342,0.0,0.0,92,0.00,,CLR,0.00,VWS V14.01,2013-10-13 08:16:00,
2013-10-13 01:21:00,40.8,38.7,30.05,NNW,342,0.0,0.0,92,0.00,,CLR,0.00,VWS V14.01,2013-10-13 08:21:00,
2013-10-13 01:26:00,40.8,38.7,30.05,NNW,342,0.0,0.0,92,0.00,,CLR,0.00,VWS V14.01,2013-10-13 08:26:00,
2013-10-13 01:31:00,40.6,38.5,30.05,NNW,342,0.0,0.0,92,0.00,,CLR,0.00,VWS V14.01,2013-10-13 08:31:00,
2013-10-13 01:36:00,40.6,38.7,30.05,NNW,342,0.0,0.0,93,0.00,,CLR,0.00,VWS V14.01,2013-10-13 08:36:00,
2013-10-13 01:41:00,40.5,38.6,30.05,NNW,342,0.0,0.0,93,0.00,,CLR,0.00,VWS V14.01,2013-10-13 08:41:00,
2013-10-13 01:46:00,40.3,38.4,30.05,NNW,342,0.0,0.0,93,0.00,,CLR,0.00,VWS V14.01,2013-10-13 08:46:00,
2013-10-13 01:51:00,40.2,38.3,30.05,NNW,342,0.0,0.0,93,0.00,,CLR,0.00,VWS V14.01,2013-10-13 08:51:00,
2013-10-13 01:56:00,40.5,38.9,30.05,NNW,342,0.0,0.0,94,0.00,,CLR,0.00,VWS V14.01,2013-10-13 08:56:00,
2013-10-13 02:01:00,40.6,39.0,30.05,NNW,342,0.0,0.0,94,0.00,,CLR,0.00,VWS V14.01,2013-10-13 09:01:00,
2013-10-13 02:06:00,40.8,38.9,30.05,NNW,342,0.0,0.0,93,0.00,,CLR,0.00,VWS V14.01,2013-10-13 09:06:00,
2013-10-13 02:11:00,40.9,39.0,30.05,NNW,342,0.0,0.0,93,0.00,,CLR,0.00,VWS V14.01,2013-10-13 09:11:00,
2013-10-13 02:16:00,41.2,39.6,30.05,NNW,342,0.0,0.0,94,0.00,,CLR,0.00,VWS V14.01,2013-10-13 09:16:00,
2013-10-13 02:21:00,41.5,39.9,30.05,NNW,342,0.0,0.0,94,0.00,,CLR,0.00,VWS V14.01,2013-10-13 09:21:00,
2013-10-13 02:26:00,41.6,40.0,30.05,NNW,342,0.0,0.0,94,0.00,,CLR,0.00,VWS V14.01,2013-10-13 09:26:00,
2013-10-13 02:31:00,41.6,40.0,30.05,NNW,342,0.0,0.0,94,0.00,,CLR,0.00,VWS V14.01,2013-10-13 09:31:00,
2013-10-13 02:36:00,41.8,40.2,30.05,NNW,342,0.0,0.0,94,0.00,,CLR,0.00,VWS V14.01,2013-10-13 09:36:00,
2013-10-13 02:41:00,41.9,40.3,30.05,NNW,342,0.0,0.0,94,0.00,,CLR,0.00,VWS V14.01,2013-10-13 09:41:00,
2013-10-13 02:46:00,41.9,40.3,30.06,NNW,342,0.0,0.0,94,0.00,,CLR,0.00,VWS V14.01,2013-10-13 09:46:00,
2013-10-13 02:51:00,42.2,40.6,30.05,NNW,342,0.0,0.0,94,0.00,,CLR,0.00,VWS V14.01,2013-10-13 09:51:00,
2013-10-13 02:56:00,42.2,40.6,30.05,NNW,342,0.0,0.0,94,0.00,,CLR,0.00,VWS V14.01,2013-10-13 09:56:00,
2013-10-13 03:01:00,42.3,40.7,30.05,NNW,342,0.0,0.0,94,0.00,,CLR,0.00,VWS V14.01,2013-10-13 10:01:00,
2013-10-13 03:06:00,42.8,41.5,30.05,East,90,0.0,0.0,95,0.00,,CLR,0.00,VWS V14.01,2013-10-13 10:06:00,
2013-10-13 03:11:00,43.9,42.8,30.05,ESE,109,4.0,7.0,96,0.00,,CLR,0.00,VWS V14.01,2013-10-13 10:11:00,
2013-10-13 03:16:00,44.9,43.8,30.06,East,97,2.0,3.0,96,0.00,,CLR,0.00,VWS V14.01,2013-10-13 10:16:00,
2013-10-13 03:21:00,45.5,44.4,30.06,SE,129,2.0,4.0,96,0.00,,CLR,0.00,VWS V14.01,2013-10-13 10:21:00,
2013-10-13 03:26:00,45.7,44.6,30.05,ESE,113,2.0,7.0,96,0.00,,CLR,0.00,VWS V14.01,2013-10-13 10:26:00,
2013-10-13 03:31:00,46.0,44.9,30.05,SE,138,6.0,6.0,96,0.00,,CLR,0.00,VWS V14.01,2013-10-13 10:31:00,
2013-10-13 03:36:00,46.0,44.9,30.05,ESE,123,0.0,4.0,96,0.00,,CLR,0.00,VWS V14.01,2013-10-13 10:36:00,
2013-10-13 03:41:00,46.0,44.9,30.05,East,99,3.0,5.0,96,0.00,,CLR,0.00,VWS V14.01,2013-10-13 10:41:00,
2013-10-13 03:46:00,46.1,45.0,30.05,SE,128,1.0,5.0,96,0.00,,CLR,0.00,VWS V14.01,2013-10-13 10:46:00,
2013-10-13 03:51:00,46.1,45.0,30.05,East,91,1.0,5.0,96,0.00,,CLR,0.00,VWS V14.01,2013-10-13 10:51:00,
2013-10-13 03:56:00,46.2,45.1,30.05,East,90,0.0,2.0,96,0.00,,CLR,0.00,VWS V14.01,2013-10-13 10:56:00,
2013-10-13 04:01:00,46.1,45.0,30.05,East,90,0.0,0.0,96,0.00,,CLR,0.00,VWS V14.01,2013-10-13 11:01:00,
2013-10-13 04:06:00,45.8,44.5,30.05,East,90,0.0,0.0,95,0.00,,CLR,0.00,VWS V14.01,2013-10-13 11:06:00,
2013-10-13 04:11:00,45.7,44.3,30.05,SE,146,0.0,2.0,95,0.00,,CLR,0.00,VWS V14.01,2013-10-13 11:11:00,
2013-10-13 04:16:00,45.5,44.2,30.05,ESE,113,0.0,0.0,95,0.00,,CLR,0.00,VWS V14.01,2013-10-13 11:16:00,
2013-10-13 04:21:00,45.5,44.2,30.05,ESE,122,0.0,0.0,95,0.00,,CLR,0.00,VWS V14.01,2013-10-13 11:21:00,
2013-10-13 04:26:00,45.2,43.9,30.06,ESE,122,0.0,0.0,95,0.00,,CLR,0.00,VWS V14.01,2013-10-13 11:26:00,
2013-10-13 04:31:00,44.9,43.6,30.06,ESE,122,0.0,0.0,95,0.00,,CLR,0.00,VWS V14.01,2013-10-13 11:31:00,
2013-10-13 04:36:00,44.6,43.3,30.06,ESE,122,0.0,0.0,95,0.00,,CLR,0.00,VWS V14.01,2013-10-13 11:36:00,
2013-10-13 04:41:00,44.3,43.0,30.06,ESE,122,0.0,0.0,95,0.00,,CLR,0.00,VWS V14.01,2013-10-13 11:41:00,
2013-10-13 04:46:00,44.1,42.8,30.06,ESE,122,0.0,0.0,95,0.00,,CLR,0.00,VWS V14.01,2013-10-13 11:46:00,
2013-10-13 04:51:00,43.6,42.3,30.06,ESE,122,0.0,0.0,95,0.00,,CLR,0.00,VWS V14.01,2013-10-13 11:51:00,
2013-10-13 04:56:00,43.2,41.9,30.06,ESE,122,0.0,0.0,95,0.00,,CLR,0.00,VWS V14.01,2013-10-13 11:56:00,
2013-10-13 05:01:00,42.8,41.5,30.06,ESE,122,0.0,0.0,95,0.00,,CLR,0.00,VWS V14.01,2013-10-13 12:01:00,
2013-10-13 05:06:00,42.6,41.3,30.06,ESE,122,0.0,0.0,95,0.00,,CLR,0.00,VWS V14.01,2013-10-13 12:06:00,
2013-10-13 05:11:00,42.3,41.0,30.06,ESE,122,0.0,0.0,95,0.00,,CLR,0.00,VWS V14.01,2013-10-13 12:11:00,
2013-10-13 05:16:00,42.1,40.8,30.06,ESE,122,0.0,0.0,95,0.00,,CLR,0.00,VWS V14.01,2013-10-13 12:16:00,
2013-10-13 05:21:00,41.9,40.6,30.06,ESE,122,0.0,0.0,95,0.00,,CLR,0.00,VWS V14.01,2013-10-13 12:21:00,
2013-10-13 05:26:00,41.8,40.5,30.06,ESE,122,0.0,0.0,95,0.00,,CLR,0.00,VWS V14.01,2013-10-13 12:26:00,
2013-10-13 05:31:00,41.6,40.3,30.06,ESE,122,0.0,0.0,95,0.00,,CLR,0.00,VWS V14.01,2013-10-13 12:31:00,
2013-10-13 05:36:00,41.6,40.3,30.06,ESE,122,0.0,0.0,95,0.00,,CLR,0.00,VWS V14.01,2013-10-13 12:36:00,
2013-10-13 05:41:00,41.6,40.3,30.06,ESE,122,0.0,0.0,95,0.00,,CLR,0.00,VWS V14.01,2013-10-13 12:41:00,
2013-10-13 05:46:00,41.5,40.2,30.06,ESE,122,0.0,0.0,95,0.00,,CLR,0.00,VWS V14.01,2013-10-13 12:46:00,
2013-10-13 05:51:00,41.3,40.0,30.06,ESE,122,0.0,0.0,95,0.00,,CLR,0.00,VWS V14.01,2013-10-13 12:51:00,
2013-10-13 05:56:00,41.2,39.9,30.06,ESE,122,0.0,0.0,95,0.00,,CLR,0.00,VWS V14.01,2013-10-13 12:56:00,
2013-10-13 06:01:00,40.9,39.6,30.06,ESE,122,0.0,0.0,95,0.00,,CLR,0.00,VWS V14.01,2013-10-13 13:01:00,
2013-10-13 06:06:00,40.6,39.3,30.07,ESE,122,0.0,0.0,95,0.00,,CLR,0.00,VWS V14.01,2013-10-13 13:06:00,
2013-10-13 06:11:00,40.3,39.0,30.07,ESE,122,0.0,0.0,95,0.00,,CLR,0.00,VWS V14.01,2013-10-13 13:11:00,
2013-10-13 06:16:00,40.1,38.8,30.07,ESE,122,0.0,0.0,95,0.00,,CLR,0.00,VWS V14.01,2013-10-13 13:16:00,
2013-10-13 06:21:00,39.8,38.5,30.07,ESE,122,0.0,0.0,95,0.00,,CLR,0.00,VWS V14.01,2013-10-13 13:21:00,
2013-10-13 06:26:00,39.6,38.3,30.07,ESE,122,0.0,0.0,95,0.00,,CLR,0.00,VWS V14.01,2013-10-13 13:26:00,
2013-10-13 06:31:00,39.5,38.2,30.07,ESE,122,0.0,0.0,95,0.00,,CLR,0.00,VWS V14.01,2013-10-13 13:31:00,
2013-10-13 06:36:00,39.5,38.2,30.07,ESE,122,0.0,0.0,95,0.00,,CLR,0.00,VWS V14.01,2013-10-13 13:36:00,
2013-10-13 06:41:00,39.5,38.5,30.07,ESE,122,0.0,0.0,96,0.00,,CLR,0.00,VWS V14.01,2013-10-13 13:41:00,
2013-10-13 06:46:00,39.8,38.8,30.07,SE,125,0.0,0.0,96,0.00,,CLR,0.00,VWS V14.01,2013-10-13 13:46:00,
2013-10-13 06:51:00,39.9,38.8,30.07,SE,125,0.0,0.0,96,0.00,,CLR,0.00,VWS V14.01,2013-10-13 13:51:00,
2013-10-13 06:56:00,40.1,39.0,30.08,SE,125,0.0,0.0,96,0.00,,CLR,0.00,VWS V14.01,2013-10-13 13:56:00,
2013-10-13 07:01:00,39.9,38.8,30.08,SE,125,0.0,0.0,96,0.00,,CLR,0.00,VWS V14.01,2013-10-13 14:01:00,
2013-10-13 07:06:00,39.9,38.8,30.08,SE,125,0.0,0.0,96,0.00,,CLR,0.00,VWS V14.01,2013-10-13 14:06:00,
2013-10-13 07:11:00,39.9,38.8,30.08,SE,125,0.0,0.0,96,0.00,,CLR,0.00,VWS V14.01,2013-10-13 14:11:00,
2013-10-13 07:16:00,39.9,38.8,30.08,SE,125,0.0,0.0,96,0.00,,CLR,0.00,VWS V14.01,2013-10-13 14:16:00,
2013-10-13 07:21:00,39.8,38.8,30.08,SE,125,0.0,0.0,96,0.00,,CLR,0.00,VWS V14.01,2013-10-13 14:21:00,
2013-10-13 07:26:00,39.8,38.8,30.08,SE,125,0.0,0.0,96,0.00,,CLR,0.00,VWS V14.01,2013-10-13 14:26:00,
2013-10-13 07:31:00,39.8,38.8,30.08,SE,125,0.0,0.0,96,0.00,,CLR,0.00,VWS V14.01,2013-10-13 14:31:00,
2013-10-13 07:36:00,39.8,38.8,30.08,SE,125,0.0,0.0,96,0.00,,CLR,0.00,VWS V14.01,2013-10-13 14:36:00,
2013-10-13 07:41:00,39.8,38.8,30.08,SE,125,0.0,0.0,96,0.00,,CLR,0.00,VWS V14.01,2013-10-13 14:41:00,
2013-10-13 07:46:00,40.3,39.2,30.08,SE,134,0.0,1.0,96,0.00,,CLR,0.00,VWS V14.01,2013-10-13 14:46:00,
2013-10-13 07:51:00,41.2,40.4,30.08,ESE,109,0.0,0.0,97,0.00,,CLR,0.00,VWS V14.01,2013-10-13 14:51:00,
2013-10-13 07:56:00,42.1,41.3,30.09,NE,38,1.0,2.0,97,0.00,,CLR,0.00,VWS V14.01,2013-10-13 14:56:00,
2013-10-13 08:01:00,42.6,41.8,30.09,SSE,167,0.0,1.0,97,0.00,,CLR,0.00,VWS V14.01,2013-10-13 15:01:00,
2013-10-13 08:06:00,42.9,42.1,30.09,SSE,167,0.0,0.0,97,0.00,,CLR,0.00,VWS V14.01,2013-10-13 15:06:00,
2013-10-13 08:11:00,43.2,42.4,30.09,SE,130,0.0,2.0,97,0.00,,CLR,0.00,VWS V14.01,2013-10-13 15:11:00,
2013-10-13 08:16:00,43.8,43.0,30.09,East,88,0.0,0.0,97,0.00,,CLR,0.00,VWS V14.01,2013-10-13 15:16:00,
2013-10-13 08:21:00,44.2,43.4,30.09,ESE,109,0.0,0.0,97,0.00,,CLR,0.00,VWS V14.01,2013-10-13 15:21:00,
2013-10-13 08:26:00,44.6,43.8,30.09,SE,143,2.0,5.0,97,0.00,,CLR,0.00,VWS V14.01,2013-10-13 15:26:00,
2013-10-13 08:31:00,44.8,44.0,30.09,ESE,114,0.0,0.0,97,0.00,,CLR,0.00,VWS V14.01,2013-10-13 15:31:00,
2013-10-13 08:36:00,44.9,44.1,30.09,ESE,114,0.0,0.0,97,0.00,,CLR,0.00,VWS V14.01,2013-10-13 15:36:00,
2013-10-13 08:41:00,44.9,44.1,30.09,ESE,113,0.0,0.0,97,0.00,,CLR,0.00,VWS V14.01,2013-10-13 15:41:00,
2013-10-13 08:46:00,45.1,44.3,30.10,WNW,294,0.0,0.0,97,0.00,,CLR,0.00,VWS V14.01,2013-10-13 15:46:00,
2013-10-13 08:51:00,45.2,44.4,30.10,WNW,294,0.0,0.0,97,0.00,,CLR,0.00,VWS V14.01,2013-10-13 15:51:00,
2013-10-13 08:56:00,45.5,44.7,30.10,WNW,294,0.0,0.0,97,0.00,,CLR,0.00,VWS V14.01,2013-10-13 15:56:00,
2013-10-13 09:01:00,46.1,45.3,30.10,WNW,294,0.0,0.0,97,0.00,,CLR,0.00,VWS V14.01,2013-10-13 16:01:00,
2013-10-13 09:06:00,46.7,45.9,30.10,WNW,294,0.0,0.0,97,0.01,,CLR,0.01,VWS V14.01,2013-10-13 16:06:00,
2013-10-13 09:11:00,47.3,46.5,30.10,WNW,294,0.0,0.0,97,0.01,,CLR,0.01,VWS V14.01,2013-10-13 16:11:00,
2013-10-13 09:16:00,48.2,47.7,30.10,WNW,294,0.0,0.0,98,0.01,,CLR,0.01,VWS V14.01,2013-10-13 16:16:00,
2013-10-13 09:21:00,49.1,48.6,30.10,WNW,294,0.0,0.0,98,0.01,,CLR,0.01,VWS V14.01,2013-10-13 16:21:00,
2013-10-13 09:26:00,49.8,49.3,30.10,WNW,294,0.0,0.0,98,0.01,,CLR,0.01,VWS V14.01,2013-10-13 16:26:00,
2013-10-13 09:31:00,50.7,50.2,30.10,WNW,294,0.0,0.0,98,0.01,,CLR,0.01,VWS V14.01,2013-10-13 16:31:00,
2013-10-13 09:36:00,51.0,50.2,30.10,WNW,294,0.0,0.0,97,0.01,,CLR,0.01,VWS V14.01,2013-10-13 16:36:00,
2013-10-13 09:41:00,51.4,50.6,30.10,WNW,294,0.0,0.0,97,0.01,,CLR,0.01,VWS V14.01,2013-10-13 16:41:00,
2013-10-13 09:46:00,51.9,51.1,30.10,SW,232,0.0,0.0,97,0.01,,CLR,0.01,VWS V14.01,2013-10-13 16:46:00,
2013-10-13 09:51:00,52.9,52.1,30.10,SW,231,0.0,3.0,97,0.01,,CLR,0.01,VWS V14.01,2013-10-13 16:51:00,
2013-10-13 09:56:00,53.6,52.8,30.10,SW,231,0.0,1.0,97,0.01,,CLR,0.01,VWS V14.01,2013-10-13 16:56:00,
2013-10-13 10:01:00,54.5,53.4,30.10,SW,231,0.0,0.0,96,0.01,,CLR,0.01,VWS V14.01,2013-10-13 17:01:00,
2013-10-13 10:06:00,55.0,53.6,30.10,SW,231,0.0,0.0,95,0.00,,CLR,0.01,VWS V14.01,2013-10-13 17:06:00,
2013-10-13 10:11:00,55.0,52.7,30.10,SW,231,0.0,0.0,92,0.00,,CLR,0.01,VWS V14.01,2013-10-13 17:11:00,
2013-10-13 10:16:00,54.8,51.6,30.10,SW,231,0.0,0.0,89,0.00,,CLR,0.01,VWS V14.01,2013-10-13 17:16:00,
2013-10-13 10:21:00,55.0,51.5,30.10,SW,231,0.0,0.0,88,0.00,,CLR,0.01,VWS V14.01,2013-10-13 17:21:00,
2013-10-13 10:26:00,55.0,50.9,30.10,SW,231,0.0,0.0,86,0.00,,CLR,0.01,VWS V14.01,2013-10-13 17:26:00,
2013-10-13 10:31:00,55.0,50.6,30.10,NNW,327,0.0,3.0,85,0.00,,CLR,0.01,VWS V14.01,2013-10-13 17:31:00,
2013-10-13 10:36:00,54.8,49.7,30.09,NNW,327,0.0,2.0,83,0.00,,CLR,0.01,VWS V14.01,2013-10-13 17:36:00,
2013-10-13 10:41:00,55.1,50.0,30.10,NNW,327,0.0,3.0,83,0.00,,CLR,0.01,VWS V14.01,2013-10-13 17:41:00,
2013-10-13 10:46:00,55.4,49.7,30.09,WNW,287,1.0,4.0,81,0.00,,CLR,0.01,VWS V14.01,2013-10-13 17:46:00,
2013-10-13 10:51:00,55.6,49.5,30.09,WNW,287,1.0,3.0,80,0.00,,CLR,0.01,VWS V14.01,2013-10-13 17:51:00,
2013-10-13 10:56:00,55.7,49.3,30.10,NW,313,0.0,2.0,79,0.00,,CLR,0.01,VWS V14.01,2013-10-13 17:56:00,
2013-10-13 11:01:00,56.0,48.9,30.10,NW,311,0.0,3.0,77,0.00,,CLR,0.01,VWS V14.01,2013-10-13 18:01:00,
2013-10-13 11:06:00,56.3,49.5,30.10,NW,311,0.0,2.0,78,0.00,,CLR,0.01,VWS V14.01,2013-10-13 18:06:00,
2013-10-13 11:11:00,56.6,49.1,30.10,NW,311,1.0,4.0,76,0.00,,CLR,0.01,VWS V14.01,2013-10-13 18:11:00,
2013-10-13 11:16:00,57.0,49.5,30.10,SW,229,0.0,0.0,76,0.00,,CLR,0.01,VWS V14.01,2013-10-13 18:16:00,
2013-10-13 11:21:00,57.5,49.3,30.10,NNW,332,0.0,4.0,74,0.00,,CLR,0.01,VWS V14.01,2013-10-13 18:21:00,
2013-10-13 11:26:00,58.0,49.8,30.10,NNW,332,0.0,0.0,74,0.00,,CLR,0.01,VWS V14.01,2013-10-13 18:26:00,
2013-10-13 11:31:00,58.3,49.7,30.09,NNW,332,0.0,0.0,73,0.00,,CLR,0.01,VWS V14.01,2013-10-13 18:31:00,
2013-10-13 11:36:00,58.9,49.9,30.10,NNW,331,2.0,4.0,72,0.00,,CLR,0.01,VWS V14.01,2013-10-13 18:36:00,
2013-10-13 11:41:00,58.9,49.9,30.10,WNW,286,4.0,4.0,72,0.00,,CLR,0.01,VWS V14.01,2013-10-13 18:41:00,
2013-10-13 11:46:00,58.9,50.6,30.10,NNW,333,0.0,3.0,74,0.00,,CLR,0.01,VWS V14.01,2013-10-13 18:46:00,
2013-10-13 11:51:00,59.0,50.7,30.10,NNW,333,5.0,5.0,74,0.00,,CLR,0.01,VWS V14.01,2013-10-13 18:51:00,
2013-10-13 11:56:00,59.5,50.8,30.09,West,267,3.0,6.0,73,0.00,,CLR,0.01,VWS V14.01,2013-10-13 18:56:00,
2013-10-13 12:01:00,59.9,50.9,30.09,West,271,0.0,0.0,72,0.00,,CLR,0.01,VWS V14.01,2013-10-13 19:01:00,
2013-10-13 12:06:00,60.5,51.4,30.09,WNW,289,2.0,5.0,72,0.00,,CLR,0.01,VWS V14.01,2013-10-13 19:06:00,
2013-10-13 12:11:00,60.7,50.9,30.09,NNW,331,4.0,6.0,70,0.00,,CLR,0.01,VWS V14.01,2013-10-13 19:11:00,
2013-10-13 12:16:00,61.0,51.2,30.09,WNW,288,0.0,6.0,70,0.00,,CLR,0.01,VWS V14.01,2013-10-13 19:16:00,
2013-10-13 12:21:00,60.9,51.1,30.09,WSW,254,0.0,3.0,70,0.00,,CLR,0.01,VWS V14.01,2013-10-13 19:21:00,
2013-10-13 12:26:00,61.0,51.2,30.09,West,281,0.0,0.0,70,0.00,,CLR,0.01,VWS V14.01,2013-10-13 19:26:00,
2013-10-13 12:31:00,61.0,50.4,30.09,NNW,338,0.0,0.0,68,0.00,,CLR,0.01,VWS V14.01,2013-10-13 19:31:00,
2013-10-13 12:36:00,61.3,50.7,30.09,West,266,0.0,1.0,68,0.00,,CLR,0.01,VWS V14.01,2013-10-13 19:36:00,
2013-10-13 12:41:00,61.6,50.5,30.09,SSW,198,0.0,3.0,67,0.00,,CLR,0.01,VWS V14.01,2013-10-13 19:41:00,
2013-10-13 12:46:00,61.8,50.3,30.09,WNW,284,0.0,3.0,66,0.00,,CLR,0.01,VWS V14.01,2013-10-13 19:46:00,
2013-10-13 12:51:00,62.3,50.4,30.09,West,273,0.0,4.0,65,0.00,,CLR,0.01,VWS V14.01,2013-10-13 19:51:00,
2013-10-13 12:56:00,62.6,49.8,30.08,WNW,296,4.0,8.0,63,0.00,,CLR,0.01,VWS V14.01,2013-10-13 19:56:00,
2013-10-13 13:01:00,62.9,49.7,30.08,SW,218,0.0,0.0,62,0.00,,CLR,0.01,VWS V14.01,2013-10-13 20:01:00,
2013-10-13 13:06:00,63.1,49.0,30.08,WNW,290,5.0,7.0,60,0.00,,CLR,0.01,VWS V14.01,2013-10-13 20:06:00,
2013-10-13 13:11:00,63.2,49.1,30.08,West,276,0.0,9.0,60,0.00,,CLR,0.01,VWS V14.01,2013-10-13 20:11:00,
2013-10-13 13:16:00,63.7,49.6,30.08,WNW,285,0.0,7.0,60,0.00,,CLR,0.01,VWS V14.01,2013-10-13 20:16:00,
2013-10-13 13:21:00,64.0,49.4,30.08,NNW,337,0.0,1.0,59,0.00,,CLR,0.01,VWS V14.01,2013-10-13 20:21:00,
2013-10-13 13:26:00,64.3,49.2,30.08,NW,309,1.0,7.0,58,0.00,,CLR,0.01,VWS V14.01,2013-10-13 20:26:00,
2013-10-13 13:31:00,64.5,49.9,30.08,West,280,4.0,5.0,59,0.00,,CLR,0.01,VWS V14.01,2013-10-13 20:31:00,
2013-10-13 13:36:00,64.5,49.4,30.08,West,273,1.0,6.0,58,0.00,,CLR,0.01,VWS V14.01,2013-10-13 20:36:00,
2013-10-13 13:41:00,64.5,49.0,30.08,West,263,2.0,4.0,57,0.00,,CLR,0.01,VWS V14.01,2013-10-13 20:41:00,
2013-10-13 13:46:00,64.5,49.4,30.08,WNW,285,0.0,8.0,58,0.00,,CLR,0.01,VWS V14.01,2013-10-13 20:46:00,
2013-10-13 13:51:00,64.7,49.6,30.08,NNW,348,0.0,3.0,58,0.00,,CLR,0.01,VWS V14.01,2013-10-13 20:51:00,
2013-10-13 13:56:00,64.7,49.6,30.07,NW,309,0.0,3.0,58,0.00,,CLR,0.01,VWS V14.01,2013-10-13 20:56:00,
2013-10-13 14:01:00,64.7,48.7,30.08,West,265,0.0,8.0,56,0.00,,CLR,0.01,VWS V14.01,2013-10-13 21:01:00,
2013-10-13 14:06:00,65.2,48.6,30.08,WNW,286,0.0,6.0,55,0.00,,CLR,0.01,VWS V14.01,2013-10-13 21:06:00,
2013-10-13 14:11:00,65.5,48.9,30.08,WNW,295,0.0,1.0,55,0.00,,CLR,0.01,VWS V14.01,2013-10-13 21:11:00,
2013-10-13 14:16:00,65.6,48.0,30.08,WSW,258,4.0,9.0,53,0.00,,CLR,0.01,VWS V14.01,2013-10-13 21:16:00,
2013-10-13 14:21:00,65.6,48.5,30.07,WNW,300,0.0,5.0,54,0.00,,CLR,0.01,VWS V14.01,2013-10-13 21:21:00,
2013-10-13 14:26:00,65.5,47.9,30.07,North,5,6.0,7.0,53,0.00,,CLR,0.01,VWS V14.01,2013-10-13 21:26:00,
2013-10-13 14:31:00,65.6,48.0,30.07,WNW,302,2.0,9.0,53,0.00,,CLR,0.01,VWS V14.01,2013-10-13 21:31:00,
2013-10-13 14:36:00,65.6,48.0,30.07,NNW,329,0.0,3.0,53,0.00,,CLR,0.01,VWS V14.01,2013-10-13 21:36:00,
2013-10-13 14:41:00,65.3,47.8,30.07,NNW,343,5.0,10.0,53,0.00,,CLR,0.01,VWS V14.01,2013-10-13 21:41:00,
2013-10-13 14:46:00,65.2,47.7,30.07,West,274,3.0,7.0,53,0.00,,CLR,0.01,VWS V14.01,2013-10-13 21:46:00,
2013-10-13 14:51:00,65.5,47.9,30.07,West,261,4.0,8.0,53,0.00,,CLR,0.01,VWS V14.01,2013-10-13 21:51:00,
2013-10-13 14:56:00,65.5,47.4,30.07,NNW,342,0.0,5.0,52,0.00,,CLR,0.01,VWS V14.01,2013-10-13 21:56:00,
2013-10-13 15:01:00,65.6,47.0,30.08,NW,326,8.0,8.0,51,0.00,,CLR,0.01,VWS V14.01,2013-10-13 22:01:00,
2013-10-13 15:06:00,65.6,46.0,30.08,NNW,346,9.0,9.0,49,0.00,,CLR,0.01,VWS V14.01,2013-10-13 22:06:00,
2013-10-13 15:11:00,65.5,45.8,30.08,NW,323,5.0,8.0,49,0.00,,CLR,0.01,VWS V14.01,2013-10-13 22:11:00,
2013-10-13 15:16:00,65.3,45.7,30.07,NNW,346,9.0,11.0,49,0.00,,CLR,0.01,VWS V14.01,2013-10-13 22:16:00,
2013-10-13 15:21:00,65.0,44.8,30.07,North,355,8.0,9.0,48,0.00,,CLR,0.01,VWS V14.01,2013-10-13 22:21:00,
2013-10-13 15:26:00,64.8,44.7,30.08,NNW,336,8.0,10.0,48,0.00,,CLR,0.01,VWS V14.01,2013-10-13 22:26:00,
2013-10-13 15:31:00,64.7,45.1,30.07,NNW,336,4.0,10.0,49,0.00,,CLR,0.01,VWS V14.01,2013-10-13 22:31:00,
2013-10-13 15:36:00,64.7,45.7,30.07,NNW,338,5.0,8.0,50,0.00,,CLR,0.01,VWS V14.01,2013-10-13 22:36:00,
2013-10-13 15:41:00,64.7,45.7,30.07,NW,315,4.0,8.0,50,0.00,,CLR,0.01,VWS V14.01,2013-10-13 22:41:00,
2013-10-13 15:46:00,64.5,45.5,30.07,NNW,342,4.0,9.0,50,0.00,,CLR,0.01,VWS V14.01,2013-10-13 22:46:00,
2013-10-13 15:51:00,64.5,45.5,30.07,West,271,5.0,6.0,50,0.00,,CLR,0.01,VWS V14.01,2013-10-13 22:51:00,
2013-10-13 15:56:00,64.7,44.6,30.08,NNW,336,1.0,10.0,48,0.00,,CLR,0.01,VWS V14.01,2013-10-13 22:56:00,
2013-10-13 16:01:00,64.7,45.7,30.08,NW,319,2.0,4.0,50,0.00,,CLR,0.01,VWS V14.01,2013-10-13 23:01:00,
2013-10-13 16:06:00,64.7,46.7,30.08,WNW,286,0.0,5.0,52,0.00,,CLR,0.01,VWS V14.01,2013-10-13 23:06:00,
2013-10-13 16:11:00,64.5,47.5,30.08,SW,223,0.0,0.0,54,0.00,,CLR,0.01,VWS V14.01,2013-10-13 23:11:00,
2013-10-13 16:16:00,64.3,49.2,30.08,West,277,2.0,6.0,58,0.00,,CLR,0.01,VWS V14.01,2013-10-13 23:16:00,
2013-10-13 16:21:00,64.2,48.7,30.08,West,277,2.0,6.0,57,0.00,,CLR,0.01,VWS V14.01,2013-10-13 23:21:00,
2013-10-13 16:26:00,64.0,48.9,30.08,West,265,0.0,3.0,58,0.00,,CLR,0.01,VWS V14.01,2013-10-13 23:26:00,
2013-10-13 16:31:00,64.0,48.5,30.08,West,281,0.0,4.0,57,0.00,,CLR,0.01,VWS V14.01,2013-10-13 23:31:00,
2013-10-13 16:36:00,64.0,49.4,30.08,WSW,252,0.0,4.0,59,0.00,,CLR,0.01,VWS V14.01,2013-10-13 23:36:00,
2013-10-13 16:41:00,63.9,49.3,30.08,West,259,0.0,3.0,59,0.00,,CLR,0.01,VWS V14.01,2013-10-13 23:41:00,
2013-10-13 16:47:00,63.7,49.1,30.08,WSW,254,4.0,8.0,59,0.00,,CLR,0.01,VWS V14.01,2013-10-13 23:47:00,
2013-10-13 16:52:00,62.9,49.7,30.09,West,272,0.0,8.0,62,0.00,,CLR,0.01,VWS V14.01,2013-10-13 23:52:00,
2013-10-13 16:57:00,61.8,49.1,30.09,SSW,205,0.0,9.0,63,0.00,,CLR,0.01,VWS V14.01,2013-10-13 23:57:00,
2013-10-13 17:02:00,61.0,49.2,30.09,WNW,298,2.0,8.0,65,0.00,,CLR,0.01,VWS V14.01,2013-10-14 00:02:00,
2013-10-13 17:07:00,60.5,48.7,30.09,WNW,290,0.0,9.0,65,0.00,,CLR,0.01,VWS V14.01,2013-10-14 00:07:00,
2013-10-13 17:12:00,60.1,48.7,30.09,WNW,284,0.0,0.0,66,0.00,,CLR,0.01,VWS V14.01,2013-10-14 00:12:00,
2013-10-13 17:17:00,59.8,48.8,30.09,West,272,9.0,9.0,67,0.00,,CLR,0.01,VWS V14.01,2013-10-14 00:17:00,
2013-10-13 17:22:00,59.5,48.9,30.09,WNW,298,3.0,5.0,68,0.00,,CLR,0.01,VWS V14.01,2013-10-14 00:22:00,
2013-10-13 17:27:00,59.0,48.5,30.09,WSW,257,0.0,8.0,68,0.00,,CLR,0.01,VWS V14.01,2013-10-14 00:27:00,
2013-10-13 17:32:00,58.7,48.6,30.10,NW,311,0.0,7.0,69,0.00,,CLR,0.01,VWS V14.01,2013-10-14 00:32:00,
2013-10-13 17:37:00,58.3,48.6,30.10,WSW,254,0.0,2.0,70,0.00,,CLR,0.01,VWS V14.01,2013-10-14 00:37:00,
2013-10-13 17:42:00,58.0,48.7,30.10,NNW,330,0.0,5.0,71,0.00,,CLR,0.01,VWS V14.01,2013-10-14 00:42:00,
2013-10-13 17:47:00,57.6,48.3,30.10,NW,319,6.0,6.0,71,0.00,,CLR,0.01,VWS V14.01,2013-10-14 00:47:00,
2013-10-13 17:52:00,57.2,48.3,30.10,NNW,341,0.0,3.0,72,0.00,,CLR,0.01,VWS V14.01,2013-10-14 00:52:00,
2013-10-13 17:57:00,56.7,48.2,30.10,NNW,327,0.0,0.0,73,0.00,,CLR,0.01,VWS V14.01,2013-10-14 00:57:00,
2013-10-13 18:02:00,56.3,48.1,30.11,NNW,345,0.0,0.0,74,0.00,,CLR,0.01,VWS V14.01,2013-10-14 01:02:00,
2013-10-13 18:07:00,56.0,48.2,30.11,NNW,327,0.0,0.0,75,0.00,,CLR,0.01,VWS V14.01,2013-10-14 01:07:00,
2013-10-13 18:12:00,55.6,48.2,30.11,NW,312,0.0,0.0,76,0.00,,CLR,0.01,VWS V14.01,2013-10-14 01:12:00,
2013-10-13 18:17:00,55.3,47.9,30.11,West,267,0.0,3.0,76,0.00,,CLR,0.01,VWS V14.01,2013-10-14 01:17:00,
2013-10-13 18:22:00,55.0,47.9,30.11,West,267,1.0,1.0,77,0.00,,CLR,0.01,VWS V14.01,2013-10-14 01:22:00,
2013-10-13 18:27:00,54.7,48.0,30.11,West,267,0.0,3.0,78,0.00,,CLR,0.01,VWS V14.01,2013-10-14 01:27:00,
2013-10-13 18:32:00,54.2,47.8,30.11,West,271,0.0,0.0,79,0.00,,CLR,0.01,VWS V14.01,2013-10-14 01:32:00,
2013-10-13 18:37:00,53.9,47.9,30.11,WNW,296,0.0,0.0,80,0.00,,CLR,0.01,VWS V14.01,2013-10-14 01:37:00,
2013-10-13 18:42:00,53.5,47.8,30.11,WNW,296,0.0,0.0,81,0.00,,CLR,0.01,VWS V14.01,2013-10-14 01:42:00,
2013-10-13 18:47:00,53.2,47.9,30.11,WNW,296,0.0,0.0,82,0.00,,CLR,0.01,VWS V14.01,2013-10-14 01:47:00,
2013-10-13 18:52:00,52.9,47.9,30.11,WNW,296,0.0,0.0,83,0.00,,CLR,0.01,VWS V14.01,2013-10-14 01:52:00,
2013-10-13 18:57:00,52.8,47.8,30.11,WNW,296,0.0,0.0,83,0.00,,CLR,0.01,VWS V14.01,2013-10-14 01:57:00,
2013-10-13 19:02:00,52.5,47.5,30.11,WNW,296,0.0,0.0,83,0.00,,CLR,0.01,VWS V14.01,2013-10-14 02:02:00,
2013-10-13 19:07:00,52.2,47.5,30.12,WNW,296,0.0,1.0,84,0.00,,CLR,0.01,VWS V14.01,2013-10-14 02:07:00,
2013-10-13 19:12:00,51.9,47.2,30.12,WNW,296,0.0,0.0,84,0.00,,CLR,0.01,VWS V14.01,2013-10-14 02:12:00,
2013-10-13 19:17:00,51.6,47.2,30.12,WNW,296,0.0,0.0,85,0.00,,CLR,0.01,VWS V14.01,2013-10-14 02:17:00,
2013-10-13 19:22:00,51.1,46.8,30.12,WNW,296,0.0,0.0,85,0.00,,CLR,0.01,VWS V14.01,2013-10-14 02:22:00,
2013-10-13 19:27:00,51.0,47.0,30.12,WNW,296,0.0,0.0,86,0.00,,CLR,0.01,VWS V14.01,2013-10-14 02:27:00,
2013-10-13 19:32:00,50.8,46.8,30.12,WNW,296,0.0,0.0,86,0.00,,CLR,0.01,VWS V14.01,2013-10-14 02:32:00,
2013-10-13 19:37:00,50.8,47.1,30.12,WNW,296,0.0,0.0,87,0.00,,CLR,0.01,VWS V14.01,2013-10-14 02:37:00,
2013-10-13 19:42:00,50.7,47.0,30.12,WNW,296,0.0,0.0,87,0.00,,CLR,0.01,VWS V14.01,2013-10-14 02:42:00,
2013-10-13 19:47:00,50.2,46.2,30.12,WNW,296,0.0,0.0,86,0.00,,CLR,0.01,VWS V14.01,2013-10-14 02:47:00,
2013-10-13 19:52:00,49.8,45.8,30.12,WNW,296,0.0,0.0,86,0.00,,CLR,0.01,VWS V14.01,2013-10-14 02:52:00,
2013-10-13 19:57:00,49.5,45.8,30.12,WNW,296,0.0,0.0,87,0.00,,CLR,0.01,VWS V14.01,2013-10-14 02:57:00,
2013-10-13 20:02:00,49.2,45.5,30.12,WNW,296,0.0,0.0,87,0.00,,CLR,0.01,VWS V14.01,2013-10-14 03:02:00,
2013-10-13 20:07:00,48.9,45.2,30.12,WNW,296,0.0,0.0,87,0.00,,CLR,0.01,VWS V14.01,2013-10-14 03:07:00,
2013-10-13 20:12:00,48.6,44.9,30.12,WNW,296,0.0,0.0,87,0.00,,CLR,0.01,VWS V14.01,2013-10-14 03:12:00,
2013-10-13 20:17:00,48.3,44.6,30.12,WNW,296,0.0,0.0,87,0.00,,CLR,0.01,VWS V14.01,2013-10-14 03:17:00,
2013-10-13 20:22:00,48.0,44.6,30.12,WNW,296,0.0,0.0,88,0.00,,CLR,0.01,VWS V14.01,2013-10-14 03:22:00,
2013-10-13 20:27:00,47.9,44.5,30.12,WNW,296,0.0,0.0,88,0.00,,CLR,0.01,VWS V14.01,2013-10-14 03:27:00,
2013-10-13 20:32:00,47.6,44.2,30.12,WNW,296,0.0,0.0,88,0.00,,CLR,0.01,VWS V14.01,2013-10-14 03:32:00,
2013-10-13 20:37:00,47.4,44.0,30.12,WNW,296,0.0,0.0,88,0.00,,CLR,0.01,VWS V14.01,2013-10-14 03:37:00,
2013-10-13 20:42:00,47.1,43.7,30.12,WNW,296,0.0,0.0,88,0.00,,CLR,0.01,VWS V14.01,2013-10-14 03:42:00,
2013-10-13 20:47:00,46.8,43.4,30.13,WNW,296,0.0,0.0,88,0.00,,CLR,0.01,VWS V14.01,2013-10-14 03:47:00,
2013-10-13 20:52:00,46.5,43.1,30.12,WNW,296,0.0,0.0,88,0.00,,CLR,0.01,VWS V14.01,2013-10-14 03:52:00,
2013-10-13 20:57:00,46.2,43.1,30.12,WNW,296,0.0,0.0,89,0.00,,CLR,0.01,VWS V14.01,2013-10-14 03:57:00,
2013-10-13 21:01:00,46.1,43.0,30.12,WNW,296,0.0,0.0,89,0.00,,CLR,0.01,VWS V14.01,2013-10-14 04:01:00,
2013-10-13 21:02:00,46.1,43.0,30.13,WNW,296,0.0,0.0,89,0.00,,CLR,0.01,VWS V14.01,2013-10-14 04:02:00,
2013-10-13 21:07:00,46.0,43.0,30.12,WNW,296,0.0,0.0,89,0.00,,CLR,0.01,VWS V14.01,2013-10-14 04:07:00,
2013-10-13 21:12:00,45.8,42.8,30.12,WNW,296,0.0,0.0,89,0.00,,CLR,0.01,VWS V14.01,2013-10-14 04:12:00,
2013-10-13 21:17:00,45.7,42.7,30.12,WNW,296,0.0,0.0,89,0.00,,CLR,0.01,VWS V14.01,2013-10-14 04:17:00,
2013-10-13 21:22:00,45.8,43.0,30.12,WNW,302,0.0,0.0,90,0.00,,CLR,0.01,VWS V14.01,2013-10-14 04:22:00,
2013-10-13 21:27:00,46.5,44.0,30.12,ESE,123,0.0,0.0,91,0.00,,CLR,0.01,VWS V14.01,2013-10-14 04:27:00,
2013-10-13 21:32:00,47.3,45.1,30.13,ESE,113,2.0,2.0,92,0.00,,CLR,0.01,VWS V14.01,2013-10-14 04:32:00,
2013-10-13 21:37:00,47.7,45.5,30.12,SE,126,0.0,0.0,92,0.00,,CLR,0.01,VWS V14.01,2013-10-14 04:37:00,
2013-10-13 21:42:00,48.2,46.0,30.12,East,99,0.0,0.0,92,0.00,,CLR,0.01,VWS V14.01,2013-10-14 04:42:00,
2013-10-13 21:47:00,48.5,46.3,30.12,ESE,119,1.0,5.0,92,0.00,,CLR,0.01,VWS V14.01,2013-10-14 04:47:00,
2013-10-13 21:52:00,48.6,46.4,30.12,ESE,123,5.0,10.0,92,0.00,,CLR,0.01,VWS V14.01,2013-10-14 04:52:00,
2013-10-13 21:57:00,48.8,46.6,30.12,East,96,2.0,9.0,92,0.00,,CLR,0.01,VWS V14.01,2013-10-14 04:57:00,
2013-10-13 22:02:00,48.9,46.7,30.12,SE,139,7.0,7.0,92,0.00,,CLR,0.01,VWS V14.01,2013-10-14 05:02:00,
2013-10-13 22:07:00,49.1,46.9,30.12,ESE,116,4.0,9.0,92,0.00,,CLR,0.01,VWS V14.01,2013-10-14 05:07:00,
2013-10-13 22:12:00,49.1,46.9,30.12,East,101,5.0,9.0,92,0.00,,CLR,0.01,VWS V14.01,2013-10-14 05:12:00,
2013-10-13 22:17:00,49.2,47.0,30.12,ENE,71,4.0,7.0,92,0.00,,CLR,0.01,VWS V14.01,2013-10-14 05:17:00,
2013-10-13 22:22:00,49.2,47.0,30.12,SE,129,3.0,4.0,92,0.00,,CLR,0.01,VWS V14.01,2013-10-14 05:22:00,
2013-10-13 22:27:00,49.2,47.0,30.12,ENE,57,0.0,3.0,92,0.00,,CLR,0.01,VWS V14.01,2013-10-14 05:27:00,
2013-10-13 22:32:00,48.9,46.4,30.12,SW,222,0.0,2.0,91,0.00,,CLR,0.01,VWS V14.01,2013-10-14 05:32:00,
2013-10-13 22:37:00,48.6,46.1,30.12,WSW,250,0.0,1.0,91,0.00,,CLR,0.01,VWS V14.01,2013-10-14 05:37:00,
2013-10-13 22:42:00,48.2,45.7,30.12,NW,316,0.0,0.0,91,0.00,,CLR,0.01,VWS V14.01,2013-10-14 05:42:00,
2013-10-13 22:47:00,47.9,45.4,30.12,NW,317,0.0,1.0,91,0.00,,CLR,0.01,VWS V14.01,2013-10-14 05:47:00,
2013-10-13 22:52:00,47.4,44.9,30.12,NW,317,0.0,0.0,91,0.00,,CLR,0.01,VWS V14.01,2013-10-14 05:52:00,
2013-10-13 22:57:00,47.1,44.6,30.12,NW,316,0.0,0.0,91,0.00,,CLR,0.01,VWS V14.01,2013-10-14 05:57:00,
2013-10-13 23:02:00,46.8,44.3,30.12,NW,316,0.0,0.0,91,0.00,,CLR,0.01,VWS V14.01,2013-10-14 06:02:00,
2013-10-13 23:07:00,46.7,44.2,30.12,NW,317,0.0,0.0,91,0.00,,CLR,0.01,VWS V14.01,2013-10-14 06:07:00,
2013-10-13 23:12:00,46.4,43.9,30.12,NW,317,0.0,0.0,91,0.00,,CLR,0.01,VWS V14.01,2013-10-14 06:12:00,
2013-10-13 23:17:00,46.1,43.6,30.12,NW,317,0.0,0.0,91,0.00,,CLR,0.01,VWS V14.01,2013-10-14 06:17:00,
2013-10-13 23:22:00,45.8,43.3,30.12,NW,317,0.0,0.0,91,0.00,,CLR,0.01,VWS V14.01,2013-10-14 06:22:00,
2013-10-13 23:27:00,45.7,43.2,30.12,NW,316,0.0,0.0,91,0.00,,CLR,0.01,VWS V14.01,2013-10-14 06:27:00,
2013-10-13 23:32:00,45.2,42.7,30.12,NW,317,0.0,0.0,91,0.00,,CLR,0.01,VWS V14.01,2013-10-14 06:32:00,
2013-10-13 23:37:00,44.8,42.3,30.12,NW,316,0.0,0.0,91,0.00,,CLR,0.01,VWS V14.01,2013-10-14 06:37:00,
2013-10-13 23:42:00,44.5,42.0,30.12,NW,316,0.0,0.0,91,0.00,,CLR,0.01,VWS V14.01,2013-10-14 06:42:00,
2013-10-13 23:47:00,44.2,41.7,30.12,NW,317,0.0,0.0,91,0.00,,CLR,0.01,VWS V14.01,2013-10-14 06:47:00,
2013-10-13 23:52:00,43.9,41.5,30.12,NW,317,0.0,0.0,91,0.00,,CLR,0.01,VWS V14.01,2013-10-14 06:52:00,
2013-10-13 23:57:00,43.5,41.0,30.12,NW,317,0.0,0.0,91,0.00,,CLR,0.01,VWS V14.01,2013-10-14 06:57:00,